TAF and METAR

METAR for Ivato Airport

FMMI 011700Z 31004KT 9999 SCT020 21/16 Q1017 NOSIG
Report created 1. apr 19:00
wind 4 knots from NW (310°) visibility > 10km scattered clouds (~50% cover) at 2000 feet Temperature 21° with dewpoint at 16° (Humidity 73.15%) Pressure 1017 hPa no significant weather change expected the next couple of hours
No TAF available for Ivato Airport